Time,TemperatureF,DewpointF,PressureIn,WindDirection,WindDirectionDegrees,WindSpeedMPH,WindSpeedGustMPH,Humidity,HourlyPrecipIn,Conditions,Clouds,dailyrainin,SoftwareType,DateUTC
2013-05-06 00:00:00,42.6,28.4,30.01,NNE,26,0.0,14.0,57,0.00,,,0.00,Wunderground v.1.13,2013-05-06 06:00:00,
2013-05-06 00:05:00,42.5,28.3,30.00,NNE,26,0.0,14.0,57,0.00,,,0.00,Wunderground v.1.13,2013-05-06 06:05:00,
2013-05-06 00:10:00,42.5,28.3,30.00,NNE,26,0.0,14.0,57,0.00,,,0.00,Wunderground v.1.13,2013-05-06 06:10:00,
2013-05-06 00:15:00,42.5,28.8,30.00,NNE,26,0.0,14.0,58,0.00,,,0.00,Wunderground v.1.13,2013-05-06 06:15:00,
2013-05-06 00:20:00,42.5,28.8,30.01,NNE,26,0.0,14.0,58,0.00,,,0.00,Wunderground v.1.13,2013-05-06 06:20:00,
2013-05-06 00:25:00,42.6,28.4,30.01,NNE,26,0.0,14.0,57,0.00,,,0.00,Wunderground v.1.13,2013-05-06 06:25:00,
2013-05-06 00:30:00,42.6,28.4,30.01,NNE,26,0.0,14.0,57,0.00,,,0.00,Wunderground v.1.13,2013-05-06 06:30:00,
2013-05-06 00:35:00,42.6,28.0,30.01,NNE,26,0.0,14.0,56,0.00,,,0.00,Wunderground v.1.13,2013-05-06 06:35:00,
2013-05-06 00:40:00,42.6,28.0,30.01,NNE,26,0.0,14.0,56,0.00,,,0.00,Wunderground v.1.13,2013-05-06 06:40:00,
2013-05-06 00:45:00,42.6,28.0,30.01,NNE,26,0.0,14.0,56,0.00,,,0.00,Wunderground v.1.13,2013-05-06 06:45:00,
2013-05-06 00:50:00,42.5,27.5,30.01,NNE,26,0.0,14.0,55,0.00,,,0.00,Wunderground v.1.13,2013-05-06 06:50:00,
2013-05-06 00:55:00,42.3,27.3,30.01,NNE,26,0.0,14.0,55,0.00,,,0.00,Wunderground v.1.13,2013-05-06 06:55:00,
2013-05-06 01:00:00,42.2,27.2,30.01,NNE,26,0.0,14.0,55,0.00,,,0.00,Wunderground v.1.13,2013-05-06 07:00:00,
2013-05-06 01:05:00,42.1,27.1,30.01,NNE,26,0.0,14.0,55,0.00,,,0.00,Wunderground v.1.13,2013-05-06 07:05:00,
2013-05-06 01:10:00,41.9,26.9,30.01,NNE,26,0.0,14.0,55,0.00,,,0.00,Wunderground v.1.13,2013-05-06 07:10:00,
2013-05-06 01:15:00,41.9,26.9,30.01,NNE,26,0.0,14.0,55,0.00,,,0.00,Wunderground v.1.13,2013-05-06 07:15:00,
2013-05-06 01:20:00,41.8,27.2,30.00,NNE,26,0.0,14.0,56,0.00,,,0.00,Wunderground v.1.13,2013-05-06 07:20:00,
2013-05-06 01:25:00,41.6,27.5,30.00,NNE,26,0.0,14.0,57,0.00,,,0.00,Wunderground v.1.13,2013-05-06 07:25:00,
2013-05-06 01:35:00,41.5,27.0,30.00,NNE,26,0.0,14.0,56,0.00,,,0.00,Wunderground v.1.13,2013-05-06 07:35:00,
2013-05-06 01:40:00,41.5,27.0,30.00,NNE,26,0.0,14.0,56,0.00,,,0.00,Wunderground v.1.13,2013-05-06 07:40:00,
2013-05-06 01:45:00,41.5,27.4,30.00,NNE,26,0.0,14.0,57,0.00,,,0.00,Wunderground v.1.13,2013-05-06 07:45:00,
2013-05-06 01:50:00,41.5,27.4,29.99,NNE,26,0.0,14.0,57,0.00,,,0.00,Wunderground v.1.13,2013-05-06 07:50:00,
2013-05-06 01:55:00,41.6,27.5,29.99,NNE,26,0.0,14.0,57,0.00,,,0.00,Wunderground v.1.13,2013-05-06 07:55:00,
2013-05-06 02:00:00,41.8,27.7,29.99,NNE,26,0.0,14.0,57,0.00,,,0.00,Wunderground v.1.13,2013-05-06 08:00:00,
2013-05-06 02:05:00,41.8,27.7,29.99,NNE,26,0.0,14.0,57,0.00,,,0.00,Wunderground v.1.13,2013-05-06 08:05:00,
2013-05-06 02:10:00,41.9,27.8,29.99,NNE,26,0.0,14.0,57,0.00,,,0.00,Wunderground v.1.13,2013-05-06 08:10:00,
2013-05-06 02:15:00,42.2,28.0,29.99,NNE,26,0.0,14.0,57,0.00,,,0.00,Wunderground v.1.13,2013-05-06 08:15:00,
2013-05-06 02:20:00,42.5,29.6,29.99,NNE,26,0.0,14.0,60,0.00,,,0.00,Wunderground v.1.13,2013-05-06 08:20:00,
2013-05-06 02:25:00,42.5,29.6,29.99,NNE,26,0.0,14.0,60,0.00,,,0.00,Wunderground v.1.13,2013-05-06 08:25:00,
2013-05-06 02:30:00,42.5,29.6,29.99,NNE,26,0.0,14.0,60,0.00,,,0.00,Wunderground v.1.13,2013-05-06 08:30:00,
2013-05-06 02:35:00,42.5,29.6,29.99,NNE,26,0.0,14.0,60,0.00,,,0.00,Wunderground v.1.13,2013-05-06 08:35:00,
2013-05-06 02:40:00,42.5,29.2,29.99,NNE,26,0.0,14.0,59,0.00,,,0.00,Wunderground v.1.13,2013-05-06 08:40:00,
2013-05-06 02:45:00,42.8,29.5,29.99,NNE,26,0.0,14.0,59,0.00,,,0.00,Wunderground v.1.13,2013-05-06 08:45:00,
2013-05-06 02:50:00,42.8,29.5,29.99,NNE,26,0.0,14.0,59,0.00,,,0.00,Wunderground v.1.13,2013-05-06 08:50:00,
2013-05-06 02:55:00,42.9,29.5,29.99,NNE,26,0.0,14.0,59,0.00,,,0.00,Wunderground v.1.13,2013-05-06 08:55:00,
2013-05-06 03:05:00,43.5,28.4,29.99,NNE,26,0.0,14.0,55,0.00,,,0.00,Wunderground v.1.13,2013-05-06 09:05:00,
2013-05-06 03:10:00,44.1,27.6,29.99,NNE,26,0.0,14.0,52,0.00,,,0.00,Wunderground v.1.13,2013-05-06 09:10:00,
2013-05-06 03:15:00,44.2,27.7,29.99,NNE,26,0.0,14.0,52,0.00,,,0.00,Wunderground v.1.13,2013-05-06 09:15:00,
2013-05-06 03:20:00,44.2,27.7,29.99,NNE,26,0.0,14.0,52,0.00,,,0.00,Wunderground v.1.13,2013-05-06 09:20:00,
2013-05-06 03:25:00,44.2,27.7,29.99,NNE,26,0.0,14.0,52,0.00,,,0.00,Wunderground v.1.13,2013-05-06 09:25:00,
2013-05-06 03:30:00,44.2,27.7,29.99,NNE,26,0.0,14.0,52,0.00,,,0.00,Wunderground v.1.13,2013-05-06 09:30:00,
2013-05-06 03:35:00,44.2,27.7,29.98,NNE,26,0.0,14.0,52,0.00,,,0.00,Wunderground v.1.13,2013-05-06 09:35:00,
2013-05-06 03:40:00,44.2,28.1,29.98,NNE,26,0.0,14.0,53,0.00,,,0.00,Wunderground v.1.13,2013-05-06 09:40:00,
2013-05-06 03:45:00,44.1,27.6,29.98,NNE,26,0.0,14.0,52,0.00,,,0.00,Wunderground v.1.13,2013-05-06 09:45:00,
2013-05-06 03:55:00,44.2,27.2,29.98,NNE,26,0.0,14.0,51,0.00,,,0.00,Wunderground v.1.13,2013-05-06 09:55:00,
2013-05-06 04:00:00,44.3,27.3,29.98,NNE,26,0.0,14.0,51,0.00,,,0.00,Wunderground v.1.13,2013-05-06 10:00:00,
2013-05-06 04:05:00,44.3,26.8,29.98,NNE,26,0.0,14.0,50,0.00,,,0.00,Wunderground v.1.13,2013-05-06 10:05:00,
2013-05-06 04:15:00,44.3,27.3,29.98,NNE,26,0.0,14.0,51,0.00,,,0.00,Wunderground v.1.13,2013-05-06 10:15:00,
2013-05-06 04:20:00,44.2,26.2,29.98,NNE,26,0.0,14.0,49,0.00,,,0.00,Wunderground v.1.13,2013-05-06 10:20:00,
2013-05-06 04:25:00,44.1,26.6,29.98,NNE,26,0.0,14.0,50,0.00,,,0.00,Wunderground v.1.13,2013-05-06 10:25:00,
2013-05-06 04:35:00,43.6,27.1,29.98,NNE,26,0.0,14.0,52,0.00,,,0.00,Wunderground v.1.13,2013-05-06 10:35:00,
2013-05-06 04:40:00,43.3,26.8,29.98,NNE,26,0.0,14.0,52,0.00,,,0.00,Wunderground v.1.13,2013-05-06 10:40:00,
2013-05-06 04:45:00,42.9,27.4,29.98,NNE,26,0.0,14.0,54,0.00,,,0.00,Wunderground v.1.13,2013-05-06 10:45:00,
2013-05-06 04:50:00,42.5,27.5,29.97,NNE,26,0.0,14.0,55,0.00,,,0.00,Wunderground v.1.13,2013-05-06 10:50:00,
2013-05-06 04:55:00,42.2,28.0,29.97,NNE,26,0.0,14.0,57,0.00,,,0.00,Wunderground v.1.13,2013-05-06 10:55:00,
2013-05-06 05:00:00,41.8,28.5,29.97,NNE,26,0.0,14.0,59,0.00,,,0.00,Wunderground v.1.13,2013-05-06 11:00:00,
2013-05-06 05:05:00,41.5,28.6,29.97,NNE,26,0.0,14.0,60,0.00,,,0.00,Wunderground v.1.13,2013-05-06 11:05:00,
2013-05-06 05:10:00,41.3,28.4,29.97,NNE,26,0.0,14.0,60,0.00,,,0.00,Wunderground v.1.13,2013-05-06 11:10:00,
2013-05-06 05:15:00,41.5,28.6,29.97,NNE,26,0.0,14.0,60,0.00,,,0.00,Wunderground v.1.13,2013-05-06 11:15:00,
2013-05-06 05:20:00,41.3,28.9,29.96,NNE,26,0.0,14.0,61,0.00,,,0.00,Wunderground v.1.13,2013-05-06 11:20:00,
2013-05-06 05:25:00,41.3,28.9,29.96,NNE,26,0.0,14.0,61,0.00,,,0.00,Wunderground v.1.13,2013-05-06 11:25:00,
2013-05-06 05:30:00,41.3,29.3,29.96,NNE,26,0.0,14.0,62,0.00,,,0.00,Wunderground v.1.13,2013-05-06 11:30:00,
2013-05-06 05:40:00,41.6,28.7,29.96,NNE,26,0.0,14.0,60,0.00,,,0.00,Wunderground v.1.13,2013-05-06 11:40:00,
2013-05-06 05:50:00,42.2,29.3,29.96,NNE,26,0.0,14.0,60,0.00,,,0.00,Wunderground v.1.13,2013-05-06 11:50:00,
2013-05-06 05:55:00,42.3,29.4,29.96,NNE,26,0.0,14.0,60,0.00,,,0.00,Wunderground v.1.13,2013-05-06 11:55:00,
2013-05-06 06:00:00,42.6,29.7,29.96,NNE,26,0.0,14.0,60,0.00,,,0.00,Wunderground v.1.13,2013-05-06 12:00:00,
2013-05-06 06:05:00,42.9,29.5,29.96,NNE,26,0.0,14.0,59,0.00,,,0.00,Wunderground v.1.13,2013-05-06 12:05:00,
2013-05-06 06:10:00,43.2,29.4,29.96,NNE,26,0.0,14.0,58,0.00,,,0.00,Wunderground v.1.13,2013-05-06 12:10:00,
2013-05-06 06:15:00,43.3,29.9,29.96,NNE,26,0.0,14.0,59,0.00,,,0.00,Wunderground v.1.13,2013-05-06 12:15:00,
2013-05-06 06:20:00,43.5,30.5,29.97,NNE,26,0.0,14.0,60,0.00,,,0.00,Wunderground v.1.13,2013-05-06 12:20:00,
2013-05-06 06:25:00,43.6,31.0,29.97,NNE,26,0.0,14.0,61,0.00,,,0.00,Wunderground v.1.13,2013-05-06 12:25:00,
2013-05-06 06:30:00,43.6,31.0,29.97,NNE,26,0.0,14.0,61,0.00,,,0.00,Wunderground v.1.13,2013-05-06 12:30:00,
2013-05-06 06:35:00,43.8,31.2,29.98,NNE,26,0.0,14.0,61,0.00,,,0.00,Wunderground v.1.13,2013-05-06 12:35:00,
2013-05-06 06:40:00,44.2,31.2,29.98,NNE,26,0.0,14.0,60,0.00,,,0.00,Wunderground v.1.13,2013-05-06 12:40:00,
2013-05-06 06:45:00,44.8,31.8,29.98,NNE,26,0.0,14.0,60,0.00,,,0.00,Wunderground v.1.13,2013-05-06 12:45:00,
2013-05-06 06:50:00,45.1,31.2,29.98,NNE,26,0.0,14.0,58,0.00,,,0.00,Wunderground v.1.13,2013-05-06 12:50:00,
2013-05-06 06:55:00,45.4,31.0,29.98,NNE,26,0.0,14.0,57,0.00,,,0.00,Wunderground v.1.13,2013-05-06 12:55:00,
2013-05-06 07:00:00,46.2,30.9,29.98,NNE,26,0.0,14.0,55,0.00,,,0.00,Wunderground v.1.13,2013-05-06 13:00:00,
2013-05-06 07:05:00,46.4,30.2,29.98,NNE,26,0.0,14.0,53,0.00,,,0.00,Wunderground v.1.13,2013-05-06 13:05:00,
2013-05-06 07:10:00,46.8,30.6,29.98,NNE,28,0.0,14.0,53,0.00,,,0.00,Wunderground v.1.13,2013-05-06 13:10:00,
2013-05-06 07:15:00,47.3,30.1,29.98,East,88,0.0,14.0,51,0.00,,,0.00,Wunderground v.1.13,2013-05-06 13:15:00,
2013-05-06 07:20:00,47.6,30.3,29.98,East,88,0.0,14.0,51,0.00,,,0.00,Wunderground v.1.13,2013-05-06 13:20:00,
2013-05-06 07:30:00,48.2,30.9,29.98,ENE,75,0.0,14.0,51,0.00,,,0.00,Wunderground v.1.13,2013-05-06 13:30:00,
2013-05-06 07:35:00,48.5,31.2,29.98,ENE,74,0.0,14.0,51,0.00,,,0.00,Wunderground v.1.13,2013-05-06 13:35:00,
2013-05-06 07:40:00,48.9,31.5,29.98,ENE,74,0.0,14.0,51,0.00,,,0.00,Wunderground v.1.13,2013-05-06 13:40:00,
2013-05-06 07:45:00,49.2,30.8,29.98,ENE,74,0.0,14.0,49,0.00,,,0.00,Wunderground v.1.13,2013-05-06 13:45:00,
2013-05-06 07:50:00,49.4,31.0,29.99,ENE,76,0.0,14.0,49,0.00,,,0.00,Wunderground v.1.13,2013-05-06 13:50:00,
2013-05-06 08:00:00,49.6,27.4,29.99,ENE,76,0.0,14.0,42,0.00,,,0.00,Wunderground v.1.13,2013-05-06 14:00:00,
2013-05-06 08:05:00,50.2,30.2,29.98,ENE,76,0.0,14.0,46,0.00,,,0.00,Wunderground v.1.13,2013-05-06 14:05:00,
2013-05-06 08:10:00,50.4,29.8,29.98,ENE,78,0.0,14.0,45,0.00,,,0.00,Wunderground v.1.13,2013-05-06 14:10:00,
2013-05-06 08:15:00,50.8,30.7,29.98,ENE,78,0.0,14.0,46,0.00,,,0.00,Wunderground v.1.13,2013-05-06 14:15:00,
2013-05-06 08:20:00,52.0,31.3,29.98,ENE,77,0.0,14.0,45,0.00,,,0.00,Wunderground v.1.13,2013-05-06 14:20:00,
2013-05-06 08:25:00,52.8,29.7,29.98,ENE,78,0.0,14.0,41,0.00,,,0.00,Wunderground v.1.13,2013-05-06 14:25:00,
2013-05-06 08:30:00,52.9,29.8,29.98,SE,144,0.0,14.0,41,0.00,,,0.00,Wunderground v.1.13,2013-05-06 14:30:00,
2013-05-06 08:35:00,53.2,28.2,29.98,SE,144,0.0,14.0,38,0.00,,,0.00,Wunderground v.1.13,2013-05-06 14:35:00,
2013-05-06 08:40:00,53.5,27.2,29.98,SSE,158,0.0,14.0,36,0.00,,,0.00,Wunderground v.1.13,2013-05-06 14:40:00,
2013-05-06 08:45:00,53.9,28.2,29.98,SSE,158,0.0,14.0,37,0.00,,,0.00,Wunderground v.1.13,2013-05-06 14:45:00,
2013-05-06 08:50:00,54.5,28.1,29.98,SSE,167,0.0,14.0,36,0.00,,,0.00,Wunderground v.1.13,2013-05-06 14:50:00,
2013-05-06 08:55:00,55.0,28.5,29.98,SSE,167,0.0,14.0,36,0.00,,,0.00,Wunderground v.1.13,2013-05-06 14:55:00,
2013-05-06 09:00:00,55.7,28.4,29.98,SSE,165,0.0,14.0,35,0.00,,,0.00,Wunderground v.1.13,2013-05-06 15:00:00,
2013-05-06 09:05:00,56.2,28.2,29.97,SSE,166,0.0,14.0,34,0.00,,,0.00,Wunderground v.1.13,2013-05-06 15:05:00,
2013-05-06 09:10:00,57.3,28.4,29.97,SSE,166,0.0,14.0,33,0.00,,,0.00,Wunderground v.1.13,2013-05-06 15:10:00,
2013-05-06 09:19:00,58.3,25.3,29.97,South,186,2.0,14.0,28,0.00,,,0.00,Wunderground v.1.13,2013-05-06 15:19:00,
2013-05-06 09:25:00,58.6,25.6,29.97,South,188,3.0,3.0,28,0.00,,,0.00,Wunderground v.1.13,2013-05-06 15:25:00,
2013-05-06 09:30:00,59.2,28.5,29.97,SW,223,3.0,3.0,31,0.00,,,0.00,Wunderground v.1.13,2013-05-06 15:30:00,
2013-05-06 09:35:00,59.6,25.5,29.96,WSW,237,2.0,14.0,27,0.00,,,0.00,Wunderground v.1.13,2013-05-06 15:35:00,
2013-05-06 09:40:00,60.1,26.0,29.96,SSW,202,3.0,3.0,27,0.00,,,0.00,Wunderground v.1.13,2013-05-06 15:40:00,
2013-05-06 09:45:00,60.7,25.6,29.96,SSW,196,2.0,2.0,26,0.00,,,0.00,Wunderground v.1.13,2013-05-06 15:45:00,
2013-05-06 09:50:00,61.3,26.1,29.96,South,180,1.0,1.0,26,0.00,,,0.00,Wunderground v.1.13,2013-05-06 15:50:00,
2013-05-06 09:55:00,61.5,24.3,29.96,South,189,2.0,2.0,24,0.00,,,0.00,Wunderground v.1.13,2013-05-06 15:55:00,
2013-05-06 10:00:00,61.8,24.6,29.96,SSW,202,3.0,14.0,24,0.00,,,0.00,Wunderground v.1.13,2013-05-06 16:00:00,
2013-05-06 10:05:00,61.6,24.4,29.96,SSW,209,4.0,14.0,24,0.00,,,0.00,Wunderground v.1.13,2013-05-06 16:05:00,
2013-05-06 10:10:00,61.8,24.6,29.96,SW,219,5.0,5.0,24,0.00,,,0.00,Wunderground v.1.13,2013-05-06 16:10:00,
2013-05-06 10:15:00,62.6,25.3,29.96,SSW,207,4.0,4.0,24,0.00,,,0.00,Wunderground v.1.13,2013-05-06 16:15:00,
2013-05-06 10:20:00,62.7,25.3,29.95,SSW,196,2.0,14.0,24,0.00,,,0.00,Wunderground v.1.13,2013-05-06 16:20:00,
2013-05-06 10:24:00,62.7,24.3,29.95,SSW,207,4.0,4.0,23,0.00,,,0.00,Wunderground v.1.13,2013-05-06 16:24:00,
2013-05-06 10:30:00,62.9,24.5,29.95,SSE,162,3.0,3.0,23,0.00,,,0.00,Wunderground v.1.13,2013-05-06 16:30:00,
2013-05-06 10:35:00,63.4,23.8,29.95,SSW,199,3.0,14.0,22,0.00,,,0.00,Wunderground v.1.13,2013-05-06 16:35:00,
2013-05-06 10:40:00,63.5,23.9,29.95,SSW,198,2.0,2.0,22,0.00,,,0.00,Wunderground v.1.13,2013-05-06 16:40:00,
2013-05-06 10:45:00,64.2,25.6,29.95,SE,140,2.0,14.0,23,0.00,,,0.00,Wunderground v.1.13,2013-05-06 16:45:00,
2013-05-06 10:55:00,65.2,26.4,29.94,South,188,2.0,2.0,23,0.00,,,0.00,Wunderground v.1.13,2013-05-06 16:55:00,
2013-05-06 11:00:00,65.0,25.2,29.94,South,171,2.0,2.0,22,0.00,,,0.00,Wunderground v.1.13,2013-05-06 17:00:00,
2013-05-06 11:05:00,64.8,23.9,29.94,SSE,155,3.0,3.0,21,0.00,,,0.00,Wunderground v.1.13,2013-05-06 17:05:00,
2013-05-06 11:10:00,64.8,23.9,29.94,South,173,3.0,14.0,21,0.00,,,0.00,Wunderground v.1.13,2013-05-06 17:10:00,
2013-05-06 11:14:00,64.8,23.9,29.94,SW,219,4.0,14.0,21,0.00,,,0.00,Wunderground v.1.13,2013-05-06 17:14:00,
2013-05-06 11:20:00,65.2,25.4,29.94,South,174,4.0,4.0,22,0.00,,,0.00,Wunderground v.1.13,2013-05-06 17:20:00,
2013-05-06 11:25:00,65.5,24.5,29.94,SSW,209,2.0,14.0,21,0.00,,,0.00,Wunderground v.1.13,2013-05-06 17:25:00,
2013-05-06 11:30:00,65.8,23.6,29.94,South,175,2.0,14.0,20,0.00,,,0.00,Wunderground v.1.13,2013-05-06 17:30:00,
2013-05-06 11:35:00,66.0,23.7,29.93,SSW,192,3.0,14.0,20,0.00,,,0.00,Wunderground v.1.13,2013-05-06 17:35:00,
2013-05-06 11:40:00,66.6,26.5,29.93,SSE,149,2.0,2.0,22,0.00,,,0.00,Wunderground v.1.13,2013-05-06 17:40:00,
2013-05-06 11:45:00,66.8,25.6,29.93,SE,140,2.0,14.0,21,0.00,,,0.00,Wunderground v.1.13,2013-05-06 17:45:00,
2013-05-06 11:50:00,66.4,24.1,29.92,ESE,113,3.0,3.0,20,0.00,,,0.00,Wunderground v.1.13,2013-05-06 17:50:00,
2013-05-06 12:00:00,66.4,25.2,29.92,SSW,198,4.0,14.0,21,0.00,,,0.00,Wunderground v.1.13,2013-05-06 18:00:00,
2013-05-06 12:05:00,66.6,24.2,29.92,South,170,5.0,14.0,20,0.00,,,0.00,Wunderground v.1.13,2013-05-06 18:05:00,
2013-05-06 12:10:00,66.8,25.6,29.92,South,173,5.0,14.0,21,0.00,,,0.00,Wunderground v.1.13,2013-05-06 18:10:00,
2013-05-06 12:20:00,66.9,24.5,29.91,SSE,165,3.0,14.0,20,0.00,,,0.00,Wunderground v.1.13,2013-05-06 18:20:00,
2013-05-06 12:25:00,66.9,23.3,29.91,SSE,159,4.0,4.0,19,0.00,,,0.00,Wunderground v.1.13,2013-05-06 18:25:00,
2013-05-06 12:30:00,67.1,24.6,29.91,South,173,3.0,3.0,20,0.00,,,0.00,Wunderground v.1.13,2013-05-06 18:30:00,
2013-05-06 12:35:00,67.8,24.0,29.90,SSE,164,2.0,14.0,19,0.00,,,0.00,Wunderground v.1.13,2013-05-06 18:35:00,
2013-05-06 12:40:00,67.8,25.2,29.90,SSE,150,2.0,2.0,20,0.00,,,0.00,Wunderground v.1.13,2013-05-06 18:40:00,
2013-05-06 12:45:00,67.6,25.1,29.90,South,170,2.0,2.0,20,0.00,,,0.00,Wunderground v.1.13,2013-05-06 18:45:00,
2013-05-06 12:50:00,67.8,26.4,29.89,SSE,157,2.0,2.0,21,0.00,,,0.00,Wunderground v.1.13,2013-05-06 18:50:00,
2013-05-06 12:55:00,68.1,25.5,29.89,SSE,165,3.0,3.0,20,0.00,,,0.00,Wunderground v.1.13,2013-05-06 18:55:00,
2013-05-06 13:00:00,68.9,24.9,29.89,SSW,196,2.0,2.0,19,0.00,,,0.00,Wunderground v.1.13,2013-05-06 19:00:00,
2013-05-06 13:05:00,68.4,25.7,29.88,ESE,117,3.0,14.0,20,0.00,,,0.00,Wunderground v.1.13,2013-05-06 19:05:00,
2013-05-06 13:10:00,68.6,25.9,29.88,ESE,123,4.0,4.0,20,0.00,,,0.00,Wunderground v.1.13,2013-05-06 19:10:00,
2013-05-06 13:15:00,69.6,25.5,29.88,SE,139,3.0,3.0,19,0.00,,,0.00,Wunderground v.1.13,2013-05-06 19:15:00,
2013-05-06 13:25:00,69.1,26.3,29.88,SSE,159,3.0,3.0,20,0.00,,,0.00,Wunderground v.1.13,2013-05-06 19:25:00,
2013-05-06 13:30:00,68.9,24.9,29.88,SE,131,1.0,1.0,19,0.00,,,0.00,Wunderground v.1.13,2013-05-06 19:30:00,
2013-05-06 13:35:00,69.4,25.3,29.88,South,178,2.0,2.0,19,0.00,,,0.00,Wunderground v.1.13,2013-05-06 19:35:00,
2013-05-06 13:40:00,68.9,26.1,29.88,SSW,201,5.0,14.0,20,0.00,,,0.00,Wunderground v.1.13,2013-05-06 19:40:00,
2013-05-06 13:45:00,68.6,24.7,29.88,SSW,213,5.0,14.0,19,0.00,,,0.00,Wunderground v.1.13,2013-05-06 19:45:00,
2013-05-06 13:50:00,68.9,26.1,29.87,SE,138,3.0,19.0,20,0.00,,,0.00,Wunderground v.1.13,2013-05-06 19:50:00,
2013-05-06 13:55:00,68.9,24.9,29.87,SSE,147,4.0,14.0,19,0.00,,,0.00,Wunderground v.1.13,2013-05-06 19:55:00,
2013-05-06 14:00:00,69.1,25.1,29.87,SSW,202,4.0,4.0,19,0.00,,,0.00,Wunderground v.1.13,2013-05-06 20:00:00,
2013-05-06 14:05:00,70.3,27.3,29.86,ESE,111,2.0,2.0,20,0.00,,,0.00,Wunderground v.1.13,2013-05-06 20:05:00,
2013-05-06 14:10:00,70.8,26.5,29.86,SSW,213,2.0,14.0,19,0.00,,,0.00,Wunderground v.1.13,2013-05-06 20:10:00,
2013-05-06 14:15:00,69.9,25.7,29.86,South,189,4.0,4.0,19,0.00,,,0.00,Wunderground v.1.13,2013-05-06 20:15:00,
2013-05-06 14:20:00,69.8,25.6,29.86,SSE,155,4.0,14.0,19,0.00,,,0.00,Wunderground v.1.13,2013-05-06 20:20:00,
2013-05-06 14:25:00,69.6,25.5,29.86,SE,138,5.0,5.0,19,0.00,,,0.00,Wunderground v.1.13,2013-05-06 20:25:00,
2013-05-06 14:30:00,69.9,27.0,29.86,SSE,151,3.0,16.0,20,0.00,,,0.00,Wunderground v.1.13,2013-05-06 20:30:00,
2013-05-06 14:35:00,70.3,26.1,29.85,SSE,155,3.0,3.0,19,0.00,,,0.00,Wunderground v.1.13,2013-05-06 20:35:00,
2013-05-06 14:40:00,70.9,26.5,29.85,SE,144,3.0,3.0,19,0.00,,,0.00,Wunderground v.1.13,2013-05-06 20:40:00,
2013-05-06 14:45:00,70.8,27.7,29.85,SE,146,3.0,3.0,20,0.00,,,0.00,Wunderground v.1.13,2013-05-06 20:45:00,
2013-05-06 14:50:00,70.6,26.3,29.84,SSE,147,4.0,4.0,19,0.00,,,0.00,Wunderground v.1.13,2013-05-06 20:50:00,
2013-05-06 14:54:00,70.9,27.8,29.84,SSE,150,3.0,3.0,20,0.00,,,0.00,Wunderground v.1.13,2013-05-06 20:54:00,
2013-05-06 15:00:00,70.9,27.8,29.84,SSE,158,3.0,14.0,20,0.00,,,0.00,Wunderground v.1.13,2013-05-06 21:00:00,
2013-05-06 15:10:00,70.1,28.3,29.84,South,190,4.0,14.0,21,0.00,,,0.00,Wunderground v.1.13,2013-05-06 21:10:00,
2013-05-06 15:14:00,71.3,29.3,29.84,East,90,3.0,3.0,21,0.00,,,0.00,Wunderground v.1.13,2013-05-06 21:14:00,
2013-05-06 15:20:00,71.5,28.3,29.83,SSE,161,2.0,2.0,20,0.00,,,0.00,Wunderground v.1.13,2013-05-06 21:20:00,
2013-05-06 15:25:00,71.3,29.3,29.83,SSE,150,2.0,2.0,21,0.00,,,0.00,Wunderground v.1.13,2013-05-06 21:25:00,
2013-05-06 15:30:00,71.6,28.4,29.83,SSE,166,3.0,14.0,20,0.00,,,0.00,Wunderground v.1.13,2013-05-06 21:30:00,
2013-05-06 15:35:00,70.4,28.6,29.83,SSE,167,5.0,5.0,21,0.00,,,0.00,Wunderground v.1.13,2013-05-06 21:35:00,
2013-05-06 15:40:00,71.1,29.2,29.83,SSE,165,4.0,14.0,21,0.00,,,0.00,Wunderground v.1.13,2013-05-06 21:40:00,
2013-05-06 15:44:00,70.4,29.7,29.83,SSE,161,4.0,4.0,22,0.00,,,0.00,Wunderground v.1.13,2013-05-06 21:44:00,
2013-05-06 15:50:00,70.6,28.7,29.82,SSW,202,4.0,4.0,21,0.00,,,0.00,Wunderground v.1.13,2013-05-06 21:50:00,
2013-05-06 16:00:00,70.8,28.9,29.82,SE,133,4.0,4.0,21,0.00,,,0.00,Wunderground v.1.13,2013-05-06 22:00:00,
2013-05-06 16:05:00,70.8,30.0,29.81,ESE,105,3.0,3.0,22,0.00,,,0.00,Wunderground v.1.13,2013-05-06 22:05:00,
2013-05-06 16:10:00,70.8,30.0,29.81,SE,146,3.0,3.0,22,0.00,,,0.00,Wunderground v.1.13,2013-05-06 22:10:00,
2013-05-06 16:20:00,69.8,29.2,29.81,SSE,168,4.0,14.0,22,0.00,,,0.00,Wunderground v.1.13,2013-05-06 22:20:00,
2013-05-06 16:25:00,70.3,30.7,29.81,ESE,110,5.0,14.0,23,0.00,,,0.00,Wunderground v.1.13,2013-05-06 22:25:00,
2013-05-06 16:30:00,70.8,30.0,29.81,SSE,168,5.0,14.0,22,0.00,,,0.00,Wunderground v.1.13,2013-05-06 22:30:00,
2013-05-06 16:35:00,70.1,30.6,29.80,SSW,194,6.0,6.0,23,0.00,,,0.00,Wunderground v.1.13,2013-05-06 22:35:00,
2013-05-06 16:40:00,69.9,30.4,29.80,ESE,121,7.0,7.0,23,0.00,,,0.00,Wunderground v.1.13,2013-05-06 22:40:00,
2013-05-06 16:45:00,69.8,30.3,29.80,SSE,152,7.0,7.0,23,0.00,,,0.00,Wunderground v.1.13,2013-05-06 22:45:00,
2013-05-06 16:50:00,69.8,30.3,29.81,SE,135,4.0,4.0,23,0.00,,,0.00,Wunderground v.1.13,2013-05-06 22:50:00,
2013-05-06 16:55:00,69.9,31.4,29.81,SSE,149,3.0,14.0,24,0.00,,,0.00,Wunderground v.1.13,2013-05-06 22:55:00,
2013-05-06 17:00:00,70.1,31.6,29.81,SSE,157,1.0,14.0,24,0.00,,,0.00,Wunderground v.1.13,2013-05-06 23:00:00,
2013-05-06 17:05:00,70.6,33.0,29.80,SSE,155,3.0,14.0,25,0.00,,,0.00,Wunderground v.1.13,2013-05-06 23:05:00,
2013-05-06 17:15:00,71.3,31.6,29.80,SSE,161,2.0,14.0,23,0.00,,,0.00,Wunderground v.1.13,2013-05-06 23:15:00,
2013-05-06 17:20:00,70.1,31.6,29.80,SSE,154,3.0,3.0,24,0.00,,,0.00,Wunderground v.1.13,2013-05-06 23:20:00,
2013-05-06 17:25:00,69.4,32.0,29.80,ESE,119,5.0,14.0,25,0.00,,,0.00,Wunderground v.1.13,2013-05-06 23:25:00,
2013-05-06 17:30:00,69.3,30.9,29.80,SSE,153,5.0,14.0,24,0.00,,,0.00,Wunderground v.1.13,2013-05-06 23:30:00,
2013-05-06 17:40:00,70.3,32.8,29.80,SSE,147,3.0,3.0,25,0.00,,,0.00,Wunderground v.1.13,2013-05-06 23:40:00,
2013-05-06 17:45:00,69.9,32.5,29.80,SSE,148,3.0,3.0,25,0.00,,,0.00,Wunderground v.1.13,2013-05-06 23:45:00,
2013-05-06 17:50:00,69.8,33.3,29.80,ESE,121,2.0,2.0,26,0.00,,,0.00,Wunderground v.1.13,2013-05-06 23:50:00,
2013-05-06 17:55:00,70.3,32.8,29.80,SSE,167,1.0,1.0,25,0.00,,,0.00,Wunderground v.1.13,2013-05-06 23:55:00,
2013-05-06 18:00:00,70.4,31.9,29.80,SSE,159,1.0,1.0,24,0.00,,,0.00,Wunderground v.1.13,2013-05-07 00:00:00,
2013-05-06 18:05:00,70.1,32.6,29.79,SE,145,2.0,14.0,25,0.00,,,0.00,Wunderground v.1.13,2013-05-07 00:05:00,
2013-05-06 18:10:00,69.8,31.4,29.79,SSE,160,4.0,4.0,24,0.00,,,0.00,Wunderground v.1.13,2013-05-07 00:10:00,
2013-05-06 18:14:00,69.6,31.2,29.79,SSE,152,5.0,14.0,24,0.00,,,0.00,Wunderground v.1.13,2013-05-07 00:14:00,
2013-05-06 18:20:00,69.6,33.2,29.79,SSE,156,4.0,14.0,26,0.00,,,0.00,Wunderground v.1.13,2013-05-07 00:20:00,
2013-05-06 18:25:00,69.6,33.2,29.79,SSE,148,3.0,3.0,26,0.00,,,0.00,Wunderground v.1.13,2013-05-07 00:25:00,
2013-05-06 18:30:00,69.4,32.0,29.79,SSE,157,3.0,3.0,25,0.00,,,0.00,Wunderground v.1.13,2013-05-07 00:30:00,
2013-05-06 18:35:00,69.1,33.7,29.79,SSE,155,4.0,4.0,27,0.00,,,0.00,Wunderground v.1.13,2013-05-07 00:35:00,
2013-05-06 18:44:00,68.8,33.4,29.79,SSE,155,3.0,3.0,27,0.00,,,0.00,Wunderground v.1.13,2013-05-07 00:44:00,
2013-05-06 18:50:00,68.8,33.4,29.78,SSE,163,2.0,2.0,27,0.00,,,0.00,Wunderground v.1.13,2013-05-07 00:50:00,
2013-05-06 18:55:00,68.3,33.0,29.78,SSE,149,1.0,1.0,27,0.00,,,0.00,Wunderground v.1.13,2013-05-07 00:55:00,
2013-05-06 19:00:00,67.8,33.5,29.78,SSE,154,1.0,1.0,28,0.00,,,0.00,Wunderground v.1.13,2013-05-07 01:00:00,
2013-05-06 19:09:00,66.9,33.6,29.78,SSE,151,2.0,2.0,29,0.00,,,0.00,Wunderground v.1.13,2013-05-07 01:09:00,
2013-05-06 19:15:00,66.8,34.3,29.78,SE,140,2.0,2.0,30,0.00,,,0.00,Wunderground v.1.13,2013-05-07 01:15:00,
2013-05-06 19:20:00,66.4,34.8,29.78,SE,143,1.0,14.0,31,0.00,,,0.00,Wunderground v.1.13,2013-05-07 01:20:00,
2013-05-06 19:25:00,66.1,34.6,29.78,ESE,119,0.0,14.0,31,0.00,,,0.00,Wunderground v.1.13,2013-05-07 01:25:00,
2013-05-06 19:35:00,65.5,34.8,29.79,SE,124,0.0,14.0,32,0.00,,,0.00,Wunderground v.1.13,2013-05-07 01:35:00,
2013-05-06 19:40:00,64.8,36.5,29.79,East,96,0.0,14.0,35,0.00,,,0.00,Wunderground v.1.13,2013-05-07 01:40:00,
2013-05-06 19:45:00,64.2,36.0,29.79,SE,138,0.0,14.0,35,0.00,,,0.00,Wunderground v.1.13,2013-05-07 01:45:00,
2013-05-06 19:50:00,63.5,36.7,29.79,SSE,147,0.0,14.0,37,0.00,,,0.00,Wunderground v.1.13,2013-05-07 01:50:00,
2013-05-06 19:55:00,62.9,36.9,29.79,SE,131,0.0,14.0,38,0.00,,,0.00,Wunderground v.1.13,2013-05-07 01:55:00,
2013-05-06 20:00:00,62.4,37.1,29.79,SE,136,0.0,14.0,39,0.00,,,0.00,Wunderground v.1.13,2013-05-07 02:00:00,
2013-05-06 20:05:00,62.1,37.5,29.79,SE,136,0.0,14.0,40,0.00,,,0.00,Wunderground v.1.13,2013-05-07 02:05:00,
2013-05-06 20:10:00,61.6,37.7,29.79,SE,132,0.0,14.0,41,0.00,,,0.00,Wunderground v.1.13,2013-05-07 02:10:00,
2013-05-06 20:15:00,61.3,37.4,29.79,SE,142,0.0,14.0,41,0.00,,,0.00,Wunderground v.1.13,2013-05-07 02:15:00,
2013-05-06 20:20:00,61.0,37.1,29.80,ESE,106,0.0,14.0,41,0.00,,,0.00,Wunderground v.1.13,2013-05-07 02:20:00,
2013-05-06 20:25:00,60.7,37.5,29.80,ESE,107,0.0,14.0,42,0.00,,,0.00,Wunderground v.1.13,2013-05-07 02:25:00,
2013-05-06 20:30:00,60.7,37.5,29.80,SSE,151,0.0,14.0,42,0.00,,,0.00,Wunderground v.1.13,2013-05-07 02:30:00,
2013-05-06 20:35:00,60.5,37.3,29.79,SE,146,0.0,14.0,42,0.00,,,0.00,Wunderground v.1.13,2013-05-07 02:35:00,
2013-05-06 20:40:00,60.5,37.9,29.79,SE,142,0.0,14.0,43,0.00,,,0.00,Wunderground v.1.13,2013-05-07 02:40:00,
2013-05-06 20:45:00,60.5,37.9,29.79,SE,145,1.0,1.0,43,0.00,,,0.00,Wunderground v.1.13,2013-05-07 02:45:00,
2013-05-06 20:50:00,60.7,37.5,29.80,SE,134,1.0,1.0,42,0.00,,,0.00,Wunderground v.1.13,2013-05-07 02:50:00,
2013-05-06 20:55:00,60.7,36.8,29.80,ESE,113,2.0,2.0,41,0.00,,,0.00,Wunderground v.1.13,2013-05-07 02:55:00,
2013-05-06 21:05:00,61.0,37.1,29.81,SE,142,3.0,3.0,41,0.00,,,0.00,Wunderground v.1.13,2013-05-07 03:05:00,
2013-05-06 21:10:00,60.9,37.0,29.81,East,99,3.0,3.0,41,0.00,,,0.00,Wunderground v.1.13,2013-05-07 03:10:00,
2013-05-06 21:15:00,60.5,36.7,29.81,SSE,148,2.0,2.0,41,0.00,,,0.00,Wunderground v.1.13,2013-05-07 03:15:00,
2013-05-06 21:20:00,60.4,36.6,29.81,SSE,148,1.0,14.0,41,0.00,,,0.00,Wunderground v.1.13,2013-05-07 03:20:00,
2013-05-06 21:24:00,60.2,37.0,29.81,SSE,156,1.0,1.0,42,0.00,,,0.00,Wunderground v.1.13,2013-05-07 03:24:00,
2013-05-06 21:30:00,60.1,36.3,29.81,SE,144,3.0,3.0,41,0.00,,,0.00,Wunderground v.1.13,2013-05-07 03:30:00,
2013-05-06 21:35:00,60.1,36.3,29.81,ESE,121,3.0,14.0,41,0.00,,,0.00,Wunderground v.1.13,2013-05-07 03:35:00,
2013-05-06 21:40:00,60.1,36.3,29.81,SSE,147,3.0,3.0,41,0.00,,,0.00,Wunderground v.1.13,2013-05-07 03:40:00,
2013-05-06 21:50:00,59.8,36.0,29.82,SE,136,4.0,14.0,41,0.00,,,0.00,Wunderground v.1.13,2013-05-07 03:50:00,
2013-05-06 21:55:00,59.6,36.5,29.82,SE,131,2.0,14.0,42,0.00,,,0.00,Wunderground v.1.13,2013-05-07 03:55:00,
2013-05-06 22:05:00,59.0,36.5,29.82,SE,140,3.0,3.0,43,0.00,,,0.00,Wunderground v.1.13,2013-05-07 04:05:00,
2013-05-06 22:10:00,58.9,36.4,29.82,ESE,116,3.0,3.0,43,0.00,,,0.00,Wunderground v.1.13,2013-05-07 04:10:00,
2013-05-06 22:15:00,58.6,36.2,29.82,NE,52,3.0,3.0,43,0.00,,,0.00,Wunderground v.1.13,2013-05-07 04:15:00,
2013-05-06 22:20:00,58.1,36.3,29.82,SSE,150,2.0,2.0,44,0.00,,,0.00,Wunderground v.1.13,2013-05-07 04:20:00,
2013-05-06 22:25:00,57.6,36.4,29.82,SSE,155,2.0,2.0,45,0.00,,,0.00,Wunderground v.1.13,2013-05-07 04:25:00,
2013-05-06 22:35:00,57.0,36.4,29.82,SE,145,1.0,14.0,46,0.00,,,0.00,Wunderground v.1.13,2013-05-07 04:35:00,
2013-05-06 22:40:00,56.9,36.3,29.82,SE,141,1.0,1.0,46,0.00,,,0.00,Wunderground v.1.13,2013-05-07 04:40:00,
2013-05-06 22:44:00,56.5,36.5,29.82,SSE,151,2.0,2.0,47,0.00,,,0.00,Wunderground v.1.13,2013-05-07 04:44:00,
2013-05-06 22:50:00,56.2,36.2,29.82,SE,133,1.0,1.0,47,0.00,,,0.00,Wunderground v.1.13,2013-05-07 04:50:00,
2013-05-06 22:55:00,55.7,36.3,29.82,SSE,147,1.0,1.0,48,0.00,,,0.00,Wunderground v.1.13,2013-05-07 04:55:00,
2013-05-06 23:00:00,55.3,36.5,29.82,SE,139,1.0,1.0,49,0.00,,,0.00,Wunderground v.1.13,2013-05-07 05:00:00,
2013-05-06 23:05:00,55.0,36.7,29.82,SSE,151,0.0,14.0,50,0.00,,,0.00,Wunderground v.1.13,2013-05-07 05:05:00,
2013-05-06 23:10:00,54.7,36.4,29.82,SE,132,0.0,14.0,50,0.00,,,0.00,Wunderground v.1.13,2013-05-07 05:10:00,
2013-05-06 23:15:00,54.2,36.5,29.82,ESE,121,0.0,14.0,51,0.00,,,0.00,Wunderground v.1.13,2013-05-07 05:15:00,
2013-05-06 23:25:00,53.5,36.3,29.82,SE,133,0.0,14.0,52,0.00,,,0.00,Wunderground v.1.13,2013-05-07 05:25:00,
2013-05-06 23:30:00,53.1,36.4,29.82,SE,133,0.0,14.0,53,0.00,,,0.00,Wunderground v.1.13,2013-05-07 05:30:00,
2013-05-06 23:34:00,52.8,36.6,29.82,SE,126,0.0,14.0,54,0.00,,,0.00,Wunderground v.1.13,2013-05-07 05:34:00,
2013-05-06 23:40:00,52.3,36.6,29.82,SE,126,0.0,14.0,55,0.00,,,0.00,Wunderground v.1.13,2013-05-07 05:40:00,
2013-05-06 23:45:00,52.2,36.5,29.82,ESE,109,0.0,14.0,55,0.00,,,0.00,Wunderground v.1.13,2013-05-07 05:45:00,
2013-05-06 23:55:00,51.9,36.2,29.82,East,83,0.0,14.0,55,0.00,,,0.00,Wunderground v.1.13,2013-05-07 05:55:00,